Time;durP1;ratioP1;P1;durP2;ratioP2;P2;SDS_P1;SDS_P2;PMS_P1;PMS_P2;Temp;Humidity;BMP_temperature;BMP_pressure;BME280_temperature;BME280_humidity;BME280_pressure;Samples;Min_cycle;Max_cycle;Signal;HPM_P1;HPM_P2
2022/01/13 00:02:33;0.00;0.00;0.62;0.00;0.00;0.62;3.77;2.47;;;21.00;28.50;;;;;;2240865;62;20402;-66
2022/01/13 00:05:26;0.00;0.00;0.62;0.00;0.00;0.62;3.00;2.40;;;21.00;28.50;;;;;;2241665;62;20418;-63
2022/01/13 00:08:11;0.00;0.00;0.62;0.00;0.00;0.62;4.40;3.20;;;21.00;28.50;;;;;;2241944;62;20366;-63
2022/01/13 00:10:57;0.00;0.00;0.62;0.00;0.00;0.62;6.20;3.67;;;21.00;28.50;;;;;;2241376;62;20718;-63
2022/01/13 00:14:38;0.00;0.00;0.62;0.00;0.00;0.62;4.47;3.30;;;21.00;28.40;;;;;;2241845;62;20406;-63
2022/01/13 00:25:18;0.00;0.00;0.62;0.00;0.00;0.62;5.93;5.33;;;21.00;28.10;;;;;;2241389;62;20390;-61
2022/01/13 00:28:12;0.00;0.00;0.62;0.00;0.00;0.62;8.87;6.93;;;21.00;28.00;;;;;;2241958;62;20446;-61
2022/01/13 00:30:59;0.00;0.00;0.62;0.00;0.00;0.62;10.83;7.57;;;21.00;27.70;;;;;;2241909;62;20367;-63
2022/01/13 00:33:45;0.00;0.00;0.62;0.00;0.00;0.62;10.57;8.90;;;20.90;27.20;;;;;;2241279;62;20359;-61
2022/01/13 00:36:33;0.00;0.00;0.62;0.00;0.00;0.62;10.97;9.40;;;20.90;27.20;;;;;;2244339;61;20398;-61
2022/01/13 00:39:19;0.00;0.00;0.62;0.00;0.00;0.62;11.77;9.47;;;20.80;26.90;;;;;;2241134;62;20722;-61
2022/01/13 00:42:04;0.00;0.00;0.62;0.00;0.00;0.62;11.37;9.97;;;20.80;26.80;;;;;;2241647;62;20414;-64
2022/01/13 00:44:49;0.00;0.00;0.62;0.00;0.00;0.62;11.80;9.90;;;20.70;26.70;;;;;;2241808;62;20444;-64
2022/01/13 00:47:36;0.00;0.00;0.62;0.00;0.00;0.62;14.50;11.90;;;20.60;26.60;;;;;;2241253;62;20362;-63
2022/01/13 00:50:21;0.00;0.00;0.62;0.00;0.00;0.62;13.23;11.07;;;20.50;26.60;;;;;;2241655;62;20415;-63
2022/01/13 00:53:05;0.00;0.00;0.62;0.00;0.00;0.62;12.83;11.53;;;20.40;26.50;;;;;;2241552;62;20411;-63
2022/01/13 00:56:00;0.00;0.00;0.62;0.00;0.00;0.62;14.37;11.27;;;20.40;26.60;;;;;;2241297;62;20394;-62
2022/01/13 00:58:46;0.00;0.00;0.62;0.00;0.00;0.62;12.13;10.83;;;20.30;26.50;;;;;;2241911;62;20363;-63
2022/01/13 01:01:30;0.00;0.00;0.62;0.00;0.00;0.62;13.40;11.00;;;20.30;26.50;;;;;;2240527;62;20491;-63
2022/01/13 01:04:15;0.00;0.00;0.62;0.00;0.00;0.62;12.77;10.87;;;20.30;26.60;;;;;;2241564;62;20786;-63
2022/01/13 01:07:00;0.00;0.00;0.62;0.00;0.00;0.62;13.63;10.83;;;20.20;26.60;;;;;;2241560;62;20430;-63
2022/01/13 01:09:50;0.00;0.00;0.62;0.00;0.00;0.62;13.30;11.63;;;20.10;26.60;;;;;;2241205;62;20650;-63
2022/01/13 01:12:38;0.00;0.00;0.62;0.00;0.00;0.62;16.40;14.27;;;20.10;26.60;;;;;;2241768;62;20362;-62
2022/01/13 01:15:24;0.00;0.00;0.62;0.00;0.00;0.62;16.40;12.40;;;20.00;26.40;;;;;;2241575;62;20398;-63
2022/01/13 01:27:15;0.00;0.00;0.62;0.00;0.00;0.62;17.80;13.27;;;19.90;26.50;;;;;;2241753;62;20432;-62
2022/01/13 01:30:13;0.00;0.00;0.62;0.00;0.00;0.62;15.67;12.60;;;19.80;26.50;;;;;;2241522;62;20371;-62
2022/01/13 01:32:58;0.00;0.00;0.62;0.00;0.00;0.62;18.57;14.20;;;19.80;26.50;;;;;;2241396;62;20374;-62
2022/01/13 01:35:43;0.00;0.00;0.62;0.00;0.00;0.62;18.67;13.67;;;19.70;26.30;;;;;;2241560;62;20415;-62
2022/01/13 01:38:27;0.00;0.00;0.62;0.00;0.00;0.62;17.77;13.70;;;19.70;26.30;;;;;;2240842;62;20342;-62
2022/01/13 01:41:12;0.00;0.00;0.62;0.00;0.00;0.62;17.53;15.27;;;19.60;26.30;;;;;;2241677;62;20387;-63
2022/01/13 01:44:01;0.00;0.00;0.62;0.00;0.00;0.62;18.10;15.40;;;19.60;26.30;;;;;;2241305;62;20398;-63
2022/01/13 01:46:47;0.00;0.00;0.62;0.00;0.00;0.62;23.57;17.83;;;19.50;26.30;;;;;;2241205;62;20815;-63
2022/01/13 01:49:38;0.00;0.00;0.62;0.00;0.00;0.62;23.27;17.80;;;19.50;26.10;;;;;;2241540;62;20362;-63
2022/01/13 01:52:24;0.00;0.00;0.62;0.00;0.00;0.62;23.13;16.13;;;19.40;26.00;;;;;;2243709;61;20402;-63
2022/01/13 01:55:09;0.00;0.00;0.62;0.00;0.00;0.62;22.53;18.70;;;19.40;26.20;;;;;;2241261;62;20394;-62
2022/01/13 01:57:54;0.00;0.00;0.62;0.00;0.00;0.62;21.07;17.90;;;19.30;26.10;;;;;;2241496;62;20742;-63
2022/01/13 02:00:39;0.00;0.00;0.62;0.00;0.00;0.62;20.60;16.10;;;19.20;25.90;;;;;;2240494;62;20358;-63
2022/01/13 02:03:27;0.00;0.00;0.62;0.00;0.00;0.62;24.23;17.27;;;19.20;26.00;;;;;;2241372;62;20587;-62
2022/01/13 02:06:12;0.00;0.00;0.62;0.00;0.00;0.62;22.53;17.90;;;19.10;26.00;;;;;;2241480;62;20804;-62
2022/01/13 02:08:56;0.00;0.00;0.62;0.00;0.00;0.62;21.93;18.20;;;19.10;26.00;;;;;;2241197;62;20403;-63
2022/01/13 02:11:47;0.00;0.00;0.62;0.00;0.00;0.62;23.50;18.00;;;19.00;25.90;;;;;;2241419;62;20373;-62
2022/01/13 02:14:37;0.00;0.00;0.62;0.00;0.00;0.62;23.13;18.00;;;19.00;25.90;;;;;;2241393;62;20394;-65
2022/01/13 02:17:25;0.00;0.00;0.62;0.00;0.00;0.62;23.57;19.20;;;19.00;25.90;;;;;;2241543;62;20755;-62
2022/01/13 02:20:19;0.00;0.00;0.62;0.00;0.00;0.62;20.80;17.73;;;18.90;25.80;;;;;;2241721;62;20405;-62
2022/01/13 02:23:03;0.00;0.00;0.62;0.00;0.00;0.62;23.40;17.70;;;18.90;26.00;;;;;;2243332;61;20362;-65
2022/01/13 02:25:48;0.00;0.00;0.62;0.00;0.00;0.62;21.20;17.27;;;18.90;26.00;;;;;;2241393;62;20378;-61
2022/01/13 02:28:34;0.00;0.00;0.62;0.00;0.00;0.62;26.13;18.47;;;18.90;26.10;;;;;;2241356;62;20562;-62
2022/01/13 02:31:19;0.00;0.00;0.62;0.00;0.00;0.62;20.57;17.50;;;18.80;26.20;;;;;;2241168;62;20378;-63
2022/01/13 02:34:04;0.00;0.00;0.62;0.00;0.00;0.62;22.00;18.67;;;18.80;26.30;;;;;;2241145;62;20723;-62
2022/01/13 02:36:54;0.00;0.00;0.62;0.00;0.00;0.62;26.53;20.73;;;18.80;26.20;;;;;;2241424;62;20390;-62
2022/01/13 02:39:41;0.00;0.00;0.62;0.00;0.00;0.62;22.97;18.40;;;18.80;26.30;;;;;;2241499;62;20375;-63
2022/01/13 02:42:25;0.00;0.00;0.62;0.00;0.00;0.62;23.50;17.63;;;18.80;26.20;;;;;;2241561;62;20370;-62
2022/01/13 02:45:16;0.00;0.00;0.62;0.00;0.00;0.62;29.23;20.20;;;18.70;26.20;;;;;;2240811;62;20450;-62
2022/01/13 02:51:00;0.00;0.00;0.62;0.00;0.00;0.62;26.53;20.00;;;18.70;26.30;;;;;;2241461;62;20366;-62
2022/01/13 02:53:46;0.00;0.00;0.62;0.00;0.00;0.62;25.13;19.20;;;18.70;26.30;;;;;;2240716;62;20367;-62
2022/01/13 02:56:31;0.00;0.00;0.62;0.00;0.00;0.62;29.67;21.37;;;18.70;26.30;;;;;;2241334;62;20390;-63
2022/01/13 02:59:15;0.00;0.00;0.62;0.00;0.00;0.62;29.33;21.73;;;18.70;26.20;;;;;;2241500;62;20622;-62
2022/01/13 03:02:00;0.00;0.00;0.62;0.00;0.00;0.62;27.43;20.47;;;18.60;26.10;;;;;;2241402;62;20361;-62
2022/01/13 03:04:48;0.00;0.00;0.62;0.00;0.00;0.62;26.27;20.60;;;18.60;26.20;;;;;;2241704;62;20401;-64
2022/01/13 03:07:34;0.00;0.00;0.62;0.00;0.00;0.62;28.00;19.80;;;18.60;26.20;;;;;;2240959;62;20359;-64
2022/01/13 03:10:20;0.00;0.00;0.62;0.00;0.00;0.62;26.03;21.60;;;18.50;26.10;;;;;;2241357;62;20471;-63
2022/01/13 03:13:06;0.00;0.00;0.62;0.00;0.00;0.62;32.57;22.87;;;18.50;26.10;;;;;;2241258;61;20362;-64
2022/01/13 03:15:51;0.00;0.00;0.62;0.00;0.00;0.62;30.43;21.80;;;18.50;26.10;;;;;;2241652;62;20394;-63
2022/01/13 03:18:37;0.00;0.00;0.62;0.00;0.00;0.62;27.10;20.97;;;18.40;26.10;;;;;;2242098;62;20407;-62
2022/01/13 03:21:21;0.00;0.00;0.62;0.00;0.00;0.62;22.97;19.20;;;18.40;26.20;;;;;;2241957;62;20393;-62
2022/01/13 03:24:10;0.00;0.00;0.62;0.00;0.00;0.62;22.37;19.30;;;18.40;26.30;;;;;;2241969;62;20468;-62
2022/01/13 03:26:56;0.00;0.00;0.62;0.00;0.00;0.62;24.37;18.07;;;18.40;26.30;;;;;;2242585;62;20370;-62
2022/01/13 03:29:40;0.00;0.00;0.62;0.00;0.00;0.62;23.10;18.17;;;18.40;26.90;;;;;;2241271;62;20365;-62
2022/01/13 03:32:24;0.00;0.00;0.62;0.00;0.00;0.62;24.30;18.40;;;18.30;26.40;;;;;;2241945;62;20626;-62
2022/01/13 03:35:09;0.00;0.00;0.62;0.00;0.00;0.62;23.13;18.20;;;18.30;26.40;;;;;;2241744;62;20434;-62
2022/01/13 03:37:54;0.00;0.00;0.62;0.00;0.00;0.62;28.60;19.70;;;18.40;26.50;;;;;;2241477;62;20427;-61
2022/01/13 03:40:39;0.00;0.00;0.62;0.00;0.00;0.62;26.60;18.93;;;18.40;26.50;;;;;;2242073;62;20358;-62
2022/01/13 03:43:25;0.00;0.00;0.62;0.00;0.00;0.62;23.90;18.53;;;18.40;26.50;;;;;;2241690;62;20845;-62
2022/01/13 03:46:11;0.00;0.00;0.62;0.00;0.00;0.62;21.50;17.27;;;18.30;26.50;;;;;;2241804;62;20383;-61
2022/01/13 03:48:55;0.00;0.00;0.62;0.00;0.00;0.62;21.00;17.30;;;18.40;26.60;;;;;;2242039;62;20366;-62
2022/01/13 03:52:50;0.00;0.00;0.62;0.00;0.00;0.62;26.47;19.47;;;18.30;26.50;;;;;;2241030;62;20630;-62
2022/01/13 03:56:42;0.00;0.00;0.62;0.00;0.00;0.62;25.87;17.27;;;18.30;26.50;;;;;;2241919;62;20472;-62
2022/01/13 04:00:41;0.00;0.00;0.62;0.00;0.00;0.62;22.67;16.57;;;18.30;26.50;;;;;;2241472;62;20390;-62
2022/01/13 04:03:27;0.00;0.00;0.62;0.00;0.00;0.62;22.30;16.30;;;18.30;26.50;;;;;;2241882;62;20378;-61
2022/01/13 04:06:40;0.00;0.00;0.62;0.00;0.00;0.62;21.63;15.60;;;18.30;26.50;;;;;;2241279;62;20374;-62
2022/01/13 04:10:01;0.00;0.00;0.62;0.00;0.00;0.62;22.87;16.77;;;18.30;26.60;;;;;;2241526;62;20546;-62
2022/01/13 04:12:46;0.00;0.00;0.62;0.00;0.00;0.62;17.70;14.17;;;18.30;26.60;;;;;;2241755;62;20403;-63
2022/01/13 04:15:31;0.00;0.00;0.62;0.00;0.00;0.62;21.33;15.80;;;18.30;26.50;;;;;;2241586;62;20606;-62
2022/01/13 04:18:16;0.00;0.00;0.62;0.00;0.00;0.62;25.80;16.47;;;18.30;26.60;;;;;;2241839;62;20450;-63
2022/01/13 04:21:02;0.00;0.00;0.62;0.00;0.00;0.62;22.77;15.87;;;18.30;26.60;;;;;;2241373;62;20358;-63
2022/01/13 04:23:47;0.00;0.00;0.62;0.00;0.00;0.62;20.73;15.27;;;18.20;26.50;;;;;;2241763;62;20366;-63
2022/01/13 04:26:34;0.00;0.00;0.62;0.00;0.00;0.62;20.40;14.50;;;18.20;26.50;;;;;;2241591;62;20354;-64
2022/01/13 04:29:27;0.00;0.00;0.62;0.00;0.00;0.62;19.77;13.97;;;18.20;26.60;;;;;;2241388;62;20644;-62
2022/01/13 04:32:12;0.00;0.00;0.62;0.00;0.00;0.62;20.80;14.43;;;18.20;26.60;;;;;;2241751;62;20385;-62
2022/01/13 04:34:57;0.00;0.00;0.62;0.00;0.00;0.62;18.77;13.83;;;18.20;26.70;;;;;;2241642;62;20387;-62
2022/01/13 04:37:42;0.00;0.00;0.62;0.00;0.00;0.62;21.00;14.27;;;18.20;26.70;;;;;;2241602;62;20443;-63
2022/01/13 04:40:27;0.00;0.00;0.62;0.00;0.00;0.62;19.77;14.53;;;18.20;26.70;;;;;;2241678;62;20359;-62
2022/01/13 04:43:13;0.00;0.00;0.62;0.00;0.00;0.62;21.00;15.13;;;18.20;26.70;;;;;;2241312;62;20382;-63
2022/01/13 04:45:57;0.00;0.00;0.62;0.00;0.00;0.62;17.93;13.77;;;18.20;26.70;;;;;;2241759;62;20482;-63
2022/01/13 04:48:42;0.00;0.00;0.62;0.00;0.00;0.62;18.97;14.20;;;18.20;26.70;;;;;;2241667;62;20369;-63
2022/01/13 04:51:26;0.00;0.00;0.62;0.00;0.00;0.62;19.10;12.73;;;18.20;26.70;;;;;;2241435;62;20373;-63
2022/01/13 04:54:13;0.00;0.00;0.62;0.00;0.00;0.62;19.13;14.07;;;18.20;26.70;;;;;;2241358;62;20393;-63
2022/01/13 04:57:15;0.00;0.00;0.62;0.00;0.00;0.62;20.20;13.13;;;18.20;26.70;;;;;;2241798;62;20469;-62
2022/01/13 04:59:59;0.00;0.00;0.62;0.00;0.00;0.62;17.20;12.73;;;18.20;26.70;;;;;;2241464;62;20426;-62
2022/01/13 05:02:44;0.00;0.00;0.62;0.00;0.00;0.62;19.83;14.60;;;18.20;26.70;;;;;;2241476;62;20571;-63
2022/01/13 05:05:28;0.00;0.00;0.62;0.00;0.00;0.62;21.00;14.63;;;18.20;26.80;;;;;;2241203;62;20455;-62
2022/01/13 05:08:13;0.00;0.00;0.62;0.00;0.00;0.62;16.93;12.70;;;18.20;26.80;;;;;;2243421;61;20361;-63
2022/01/13 05:10:58;0.00;0.00;0.62;0.00;0.00;0.62;17.97;13.53;;;18.20;26.80;;;;;;2245638;61;20412;-67
2022/01/13 05:13:44;0.00;0.00;0.62;0.00;0.00;0.62;17.00;12.13;;;18.20;26.90;;;;;;2245077;61;20382;-66
2022/01/13 05:16:36;0.00;0.00;0.62;0.00;0.00;0.62;16.07;12.60;;;18.20;26.90;;;;;;2245389;61;20377;-62
2022/01/13 05:19:31;0.00;0.00;0.62;0.00;0.00;0.62;16.80;11.63;;;18.20;26.90;;;;;;2245824;61;20354;-62
2022/01/13 05:22:16;0.00;0.00;0.62;0.00;0.00;0.62;17.87;13.40;;;18.20;26.90;;;;;;2245094;61;20414;-61
2022/01/13 05:25:01;0.00;0.00;0.62;0.00;0.00;0.62;17.97;12.63;;;18.20;27.00;;;;;;2270046;41;20726;-61
2022/01/13 05:27:48;0.00;0.00;0.62;0.00;0.00;0.62;18.83;13.60;;;18.20;27.00;;;;;;2241490;62;20362;-61
2022/01/13 05:30:33;0.00;0.00;0.62;0.00;0.00;0.62;19.07;13.73;;;18.20;26.90;;;;;;2241297;62;20791;-61
2022/01/13 05:33:17;0.00;0.00;0.62;0.00;0.00;0.62;17.57;12.50;;;18.20;26.90;;;;;;2241601;62;20418;-62
2022/01/13 05:36:02;0.00;0.00;0.62;0.00;0.00;0.62;23.00;14.97;;;18.20;26.90;;;;;;2241641;62;20425;-62
2022/01/13 05:38:46;0.00;0.00;0.62;0.00;0.00;0.62;23.87;15.50;;;18.20;26.70;;;;;;2240997;62;20398;-61
2022/01/13 05:41:31;0.00;0.00;0.62;0.00;0.00;0.62;20.80;14.43;;;18.20;26.50;;;;;;2241658;62;20358;-62
2022/01/13 05:44:18;0.00;0.00;0.62;0.00;0.00;0.62;18.10;14.03;;;18.10;26.60;;;;;;2240971;61;20434;-64
2022/01/13 05:47:03;0.00;0.00;0.62;0.00;0.00;0.62;19.30;13.90;;;18.10;26.70;;;;;;2241181;62;20406;-64
2022/01/13 05:49:48;0.00;0.00;0.62;0.00;0.00;0.62;21.43;14.57;;;18.10;26.70;;;;;;2241642;62;20726;-62
2022/01/13 05:52:33;0.00;0.00;0.62;0.00;0.00;0.62;24.60;16.70;;;18.00;26.60;;;;;;2241443;62;20619;-66
2022/01/13 05:55:18;0.00;0.00;0.62;0.00;0.00;0.62;20.00;13.33;;;18.00;26.60;;;;;;2241141;61;20411;-63
2022/01/13 05:58:03;0.00;0.00;0.62;0.00;0.00;0.62;17.80;12.37;;;18.00;26.70;;;;;;2241302;62;20463;-63
2022/01/13 06:00:49;0.00;0.00;0.62;0.00;0.00;0.62;12.93;10.40;;;17.90;26.70;;;;;;2264134;61;20394;-62
2022/01/13 06:03:34;0.00;0.00;0.62;0.00;0.00;0.62;11.63;9.27;;;17.90;26.80;;;;;;2240652;61;20374;-64
2022/01/13 06:06:18;0.00;0.00;0.62;0.00;0.00;0.62;14.03;9.70;;;17.90;26.80;;;;;;2243045;62;20659;-63
2022/01/13 06:09:03;0.00;0.00;0.62;0.00;0.00;0.62;15.30;10.20;;;18.00;26.90;;;;;;2327132;54;20622;-60
2022/01/13 06:12:00;0.00;0.00;0.62;0.00;0.00;0.62;13.93;9.73;;;18.00;27.00;;;;;;2241411;62;20370;-62
2022/01/13 06:14:45;0.00;0.00;0.62;0.00;0.00;0.62;11.17;7.97;;;18.10;27.10;;;;;;2237471;62;20383;-63
2022/01/13 06:17:31;0.00;0.00;0.62;0.00;0.00;0.62;12.23;9.63;;;18.10;27.10;;;;;;2472836;54;20370;-62
2022/01/13 06:20:17;0.00;0.00;0.62;0.00;0.00;0.62;12.13;8.30;;;18.10;27.10;;;;;;2241430;62;20701;-63
2022/01/13 06:23:03;0.00;0.00;0.62;0.00;0.00;0.62;10.40;9.10;;;18.20;27.10;;;;;;2467816;54;20742;-62
2022/01/13 06:25:47;0.00;0.00;0.62;0.00;0.00;0.62;11.30;7.80;;;18.20;27.10;;;;;;2237035;62;20391;-63
2022/01/13 06:28:32;0.00;0.00;0.62;0.00;0.00;0.62;11.60;9.00;;;18.20;27.10;;;;;;2237138;62;20367;-63
2022/01/13 06:31:16;0.00;0.00;0.62;0.00;0.00;0.62;10.70;7.10;;;18.30;27.10;;;;;;2237070;62;20577;-63
2022/01/13 06:34:02;0.00;0.00;0.62;0.00;0.00;0.62;12.10;8.43;;;18.30;27.10;;;;;;2240673;61;20371;-62
2022/01/13 06:36:47;0.00;0.00;0.62;0.00;0.00;0.62;7.50;6.37;;;18.30;27.10;;;;;;2241438;62;20386;-62
2022/01/13 06:39:32;0.00;0.00;0.62;0.00;0.00;0.62;7.97;6.23;;;18.40;27.20;;;;;;2241412;62;20370;-62
2022/01/13 06:42:17;0.00;0.00;0.62;0.00;0.00;0.62;9.60;6.93;;;18.40;27.10;;;;;;2241252;62;20398;-62
2022/01/13 06:45:03;0.00;0.00;0.62;0.00;0.00;0.62;8.47;6.63;;;18.40;27.10;;;;;;2240921;61;20463;-63
2022/01/13 06:47:48;0.00;0.00;0.62;0.00;0.00;0.62;9.70;7.50;;;18.40;27.10;;;;;;2241353;62;20456;-63
2022/01/13 06:50:35;0.00;0.00;0.62;0.00;0.00;0.62;9.50;7.13;;;18.40;27.10;;;;;;2242236;62;20361;-62
2022/01/13 06:53:21;0.00;0.00;0.62;0.00;0.00;0.62;8.50;6.33;;;18.50;27.10;;;;;;2241693;62;20365;-62
2022/01/13 06:56:06;0.00;0.00;0.62;0.00;0.00;0.62;7.53;6.37;;;18.50;27.10;;;;;;2241855;62;20824;-63
2022/01/13 06:58:51;0.00;0.00;0.62;0.00;0.00;0.62;8.63;6.20;;;18.50;27.10;;;;;;2242346;62;20411;-63
2022/01/13 07:01:36;0.00;0.00;0.62;0.00;0.00;0.62;8.33;6.30;;;18.60;27.20;;;;;;2242036;62;20403;-63
2022/01/13 07:04:21;0.00;0.00;0.62;0.00;0.00;0.62;8.83;6.13;;;18.50;27.00;;;;;;2242060;61;20851;-62
2022/01/13 07:07:07;0.00;0.00;0.62;0.00;0.00;0.62;10.13;6.23;;;18.60;27.10;;;;;;2241573;62;20374;-63
2022/01/13 07:09:52;0.00;0.00;0.62;0.00;0.00;0.62;7.13;5.67;;;18.60;27.10;;;;;;2241900;62;20391;-63
2022/01/13 07:12:37;0.00;0.00;0.62;0.00;0.00;0.62;6.70;5.90;;;18.60;27.10;;;;;;2241957;62;20630;-63
2022/01/13 07:15:22;0.00;0.00;0.62;0.00;0.00;0.62;9.40;6.37;;;18.70;27.10;;;;;;2241441;61;20378;-62
2022/01/13 07:18:07;0.00;0.00;0.62;0.00;0.00;0.62;7.33;5.40;;;18.70;27.10;;;;;;2241957;62;20363;-62
2022/01/13 07:20:52;0.00;0.00;0.62;0.00;0.00;0.62;6.87;5.33;;;18.70;27.10;;;;;;2242093;62;20362;-61
2022/01/13 07:23:38;0.00;0.00;0.62;0.00;0.00;0.62;6.50;5.33;;;18.70;27.10;;;;;;2241595;62;20374;-61
2022/01/13 07:26:22;0.00;0.00;0.62;0.00;0.00;0.62;5.97;4.93;;;18.70;27.10;;;;;;2241887;62;20371;-62
2022/01/13 07:29:08;0.00;0.00;0.62;0.00;0.00;0.62;7.20;4.90;;;18.80;27.20;;;;;;2242032;62;20366;-62
2022/01/13 07:31:52;0.00;0.00;0.62;0.00;0.00;0.62;7.10;5.17;;;18.80;27.10;;;;;;2242022;62;20363;-61
2022/01/13 07:34:37;0.00;0.00;0.62;0.00;0.00;0.62;6.97;5.30;;;18.80;27.10;;;;;;2242011;61;20470;-64
2022/01/13 07:37:24;0.00;0.00;0.62;0.00;0.00;0.62;7.43;5.10;;;18.80;27.10;;;;;;2241436;62;20398;-62
2022/01/13 07:40:15;0.00;0.00;0.62;0.00;0.00;0.62;7.50;6.03;;;18.80;27.10;;;;;;2241951;62;20362;-63
2022/01/13 07:42:59;0.00;0.00;0.62;0.00;0.00;0.62;5.83;4.80;;;18.80;27.00;;;;;;2242010;62;20587;-62
2022/01/13 07:45:44;0.00;0.00;0.62;0.00;0.00;0.62;7.40;5.70;;;18.90;27.10;;;;;;2241554;61;20423;-62
2022/01/13 07:48:28;0.00;0.00;0.62;0.00;0.00;0.62;6.90;5.00;;;18.90;27.10;;;;;;2241673;62;20395;-63
2022/01/13 07:51:13;0.00;0.00;0.62;0.00;0.00;0.62;6.47;5.07;;;18.90;27.10;;;;;;2241918;62;20371;-62
2022/01/13 07:53:57;0.00;0.00;0.62;0.00;0.00;0.62;6.60;5.20;;;18.90;27.00;;;;;;2241746;61;20770;-63
2022/01/13 07:56:43;0.00;0.00;0.62;0.00;0.00;0.62;7.40;4.80;;;18.90;27.00;;;;;;2242017;62;20507;-63
2022/01/13 07:59:29;0.00;0.00;0.62;0.00;0.00;0.62;5.83;4.47;;;19.00;27.20;;;;;;2241376;62;20434;-62
2022/01/13 08:02:14;0.00;0.00;0.62;0.00;0.00;0.62;6.27;4.80;;;19.00;27.10;;;;;;2241760;62;20366;-62
2022/01/13 08:04:59;0.00;0.00;0.62;0.00;0.00;0.62;6.20;5.27;;;19.00;27.10;;;;;;2242011;61;20382;-63
2022/01/13 08:07:44;0.00;0.00;0.62;0.00;0.00;0.62;5.40;4.63;;;19.00;27.10;;;;;;2241444;62;20378;-62
2022/01/13 08:10:29;0.00;0.00;0.62;0.00;0.00;0.62;6.10;4.87;;;19.00;27.00;;;;;;2241926;62;20608;-62
2022/01/13 08:13:15;0.00;0.00;0.62;0.00;0.00;0.62;5.37;4.17;;;19.00;27.00;;;;;;2241683;62;20479;-62
2022/01/13 08:16:07;0.00;0.00;0.62;0.00;0.00;0.62;6.60;4.57;;;19.00;27.00;;;;;;2241504;62;20409;-62
2022/01/13 08:21:55;0.00;0.00;0.62;0.00;0.00;0.62;6.03;4.57;;;19.10;27.10;;;;;;2241248;62;20431;-62
2022/01/13 08:24:39;0.00;0.00;0.62;0.00;0.00;0.62;5.07;3.50;;;19.10;27.10;;;;;;2241758;61;20429;-63
2022/01/13 08:27:24;0.00;0.00;0.62;0.00;0.00;0.62;4.60;3.97;;;19.10;27.10;;;;;;2241511;62;20382;-63
2022/01/13 08:30:12;0.00;0.00;0.62;0.00;0.00;0.62;6.03;4.77;;;19.10;27.00;;;;;;2241448;62;20370;-63
2022/01/13 08:32:56;0.00;0.00;0.62;0.00;0.00;0.62;4.63;3.57;;;19.10;27.00;;;;;;2241601;62;20362;-62
2022/01/13 08:35:43;0.00;0.00;0.62;0.00;0.00;0.62;5.43;4.30;;;19.10;27.00;;;;;;2241615;61;20626;-62
2022/01/13 08:38:28;0.00;0.00;0.62;0.00;0.00;0.62;5.63;3.90;;;19.10;27.00;;;;;;2241862;62;20362;-62
2022/01/13 08:41:12;0.00;0.00;0.62;0.00;0.00;0.62;5.23;4.13;;;19.10;27.00;;;;;;2241835;62;20430;-64
2022/01/13 08:43:57;0.00;0.00;0.62;0.00;0.00;0.62;5.40;3.93;;;19.10;27.00;;;;;;2241190;61;20434;-63
2022/01/13 08:46:43;0.00;0.00;0.62;0.00;0.00;0.62;6.03;4.57;;;19.20;27.10;;;;;;2241891;62;20402;-62
2022/01/13 08:49:28;0.00;0.00;0.62;0.00;0.00;0.62;5.10;3.73;;;19.20;27.10;;;;;;2241987;62;20362;-63
2022/01/13 08:52:13;0.00;0.00;0.62;0.00;0.00;0.62;5.00;4.30;;;19.20;27.00;;;;;;2241251;62;20401;-64
2022/01/13 08:54:59;0.00;0.00;0.62;0.00;0.00;0.62;6.80;4.37;;;19.20;27.00;;;;;;2241525;61;20401;-63
2022/01/13 08:57:44;0.00;0.00;0.62;0.00;0.00;0.62;4.80;3.73;;;19.20;27.00;;;;;;2241665;62;20366;-62
2022/01/13 09:00:28;0.00;0.00;0.62;0.00;0.00;0.62;6.43;4.50;;;19.20;27.00;;;;;;2241766;62;20438;-62
2022/01/13 09:03:14;0.00;0.00;0.62;0.00;0.00;0.62;4.23;3.37;;;19.20;27.00;;;;;;2241721;62;20362;-62
2022/01/13 09:05:59;0.00;0.00;0.62;0.00;0.00;0.62;4.10;3.20;;;19.30;27.10;;;;;;2241131;62;20386;-63
2022/01/13 09:08:43;0.00;0.00;0.62;0.00;0.00;0.62;5.70;4.47;;;19.20;27.00;;;;;;2468606;54;20765;-62
2022/01/13 09:11:28;0.00;0.00;0.62;0.00;0.00;0.62;5.37;3.80;;;19.30;27.00;;;;;;2237651;62;20356;-61
2022/01/13 09:14:15;0.00;0.00;0.62;0.00;0.00;0.62;6.80;4.57;;;19.30;27.00;;;;;;2472730;54;20379;-62
2022/01/13 09:17:01;0.00;0.00;0.62;0.00;0.00;0.62;5.80;4.77;;;19.30;27.00;;;;;;2241647;62;20390;-63
2022/01/13 09:19:46;0.00;0.00;0.62;0.00;0.00;0.62;5.20;3.80;;;19.30;27.00;;;;;;2241504;62;20358;-62
2022/01/13 09:22:31;0.00;0.00;0.62;0.00;0.00;0.62;6.03;4.50;;;19.30;27.00;;;;;;2241325;62;20362;-62
2022/01/13 09:25:16;0.00;0.00;0.62;0.00;0.00;0.62;5.63;3.87;;;19.30;27.00;;;;;;2241658;61;20753;-63
2022/01/13 09:28:03;0.00;0.00;0.62;0.00;0.00;0.62;5.47;3.80;;;19.30;27.00;;;;;;2240928;62;20395;-62
2022/01/13 09:30:47;0.00;0.00;0.62;0.00;0.00;0.62;5.87;4.00;;;19.30;27.00;;;;;;2241649;62;20383;-63
2022/01/13 09:33:32;0.00;0.00;0.62;0.00;0.00;0.62;4.40;4.00;;;19.30;27.00;;;;;;2241521;62;20362;-62
2022/01/13 09:36:19;0.00;0.00;0.62;0.00;0.00;0.62;5.10;4.17;;;19.30;27.00;;;;;;2240957;62;20640;-63
2022/01/13 09:39:07;0.00;0.00;0.62;0.00;0.00;0.62;6.37;3.97;;;19.40;27.00;;;;;;2241660;62;20586;-62
2022/01/13 09:41:52;0.00;0.00;0.62;0.00;0.00;0.62;3.60;3.13;;;19.40;27.00;;;;;;2241519;62;20366;-63
2022/01/13 09:44:37;0.00;0.00;0.62;0.00;0.00;0.62;5.93;4.10;;;19.40;27.00;;;;;;2241402;61;20413;-62
2022/01/13 09:47:23;0.00;0.00;0.62;0.00;0.00;0.62;4.40;3.33;;;19.40;27.00;;;;;;2241585;62;20443;-62
2022/01/13 09:50:13;0.00;0.00;0.62;0.00;0.00;0.62;4.93;3.60;;;19.40;27.00;;;;;;2241086;62;20869;-63
2022/01/13 09:52:59;0.00;0.00;0.62;0.00;0.00;0.62;4.90;4.07;;;19.40;27.00;;;;;;2241395;62;20581;-62
2022/01/13 09:55:46;0.00;0.00;0.62;0.00;0.00;0.62;5.13;3.50;;;19.40;27.00;;;;;;2241416;61;20394;-62
2022/01/13 09:58:31;0.00;0.00;0.62;0.00;0.00;0.62;4.17;3.77;;;19.40;27.00;;;;;;2241142;62;20366;-63
2022/01/13 10:01:16;0.00;0.00;0.62;0.00;0.00;0.62;4.40;3.20;;;19.40;27.00;;;;;;2240920;62;20390;-62
2022/01/13 10:04:00;0.00;0.00;0.62;0.00;0.00;0.62;4.53;3.53;;;19.50;27.10;;;;;;2241068;61;20370;-63
2022/01/13 10:06:47;0.00;0.00;0.62;0.00;0.00;0.62;5.50;3.50;;;19.50;27.10;;;;;;2241433;62;20379;-63
2022/01/13 10:09:52;0.00;0.00;0.62;0.00;0.00;0.62;4.60;3.10;;;19.50;27.10;;;;;;2241447;62;20588;-62
2022/01/13 10:12:37;0.00;0.00;0.62;0.00;0.00;0.62;4.07;3.10;;;19.50;27.10;;;;;;2240903;62;20618;-63
2022/01/13 10:18:39;0.00;0.00;0.62;0.00;0.00;0.62;4.40;3.00;;;19.50;27.10;;;;;;2241678;62;20418;-63
2022/01/13 10:21:24;0.00;0.00;0.62;0.00;0.00;0.62;5.10;3.17;;;19.50;27.10;;;;;;2240956;62;20374;-63
2022/01/13 10:24:12;0.00;0.00;0.62;0.00;0.00;0.62;3.67;3.00;;;19.60;27.20;;;;;;2241693;61;20414;-63
2022/01/13 10:27:06;0.00;0.00;0.62;0.00;0.00;0.62;4.77;3.80;;;19.60;27.20;;;;;;2241741;62;20407;-63
2022/01/13 10:29:55;0.00;0.00;0.62;0.00;0.00;0.62;4.50;2.97;;;19.60;27.20;;;;;;2242132;62;20366;-63
2022/01/13 10:32:41;0.00;0.00;0.62;0.00;0.00;0.62;4.53;3.20;;;19.60;27.10;;;;;;2242142;62;20362;-64
2022/01/13 10:35:26;0.00;0.00;0.62;0.00;0.00;0.62;3.77;3.20;;;19.60;27.10;;;;;;2241516;61;20473;-62
2022/01/13 10:38:13;0.00;0.00;0.62;0.00;0.00;0.62;3.73;3.00;;;19.60;27.10;;;;;;2242197;62;20741;-63
2022/01/13 10:41:37;0.00;0.00;0.62;0.00;0.00;0.62;4.33;3.50;;;19.60;27.10;;;;;;2242252;62;20358;-64
2022/01/13 10:44:23;0.00;0.00;0.62;0.00;0.00;0.62;4.00;3.10;;;19.70;27.20;;;;;;2241973;61;20434;-63
2022/01/13 10:47:07;0.00;0.00;0.62;0.00;0.00;0.62;3.67;2.50;;;19.70;27.20;;;;;;2242225;62;20438;-63
2022/01/13 10:49:52;0.00;0.00;0.62;0.00;0.00;0.62;4.00;3.07;;;19.70;27.10;;;;;;2241526;62;20365;-63
2022/01/13 10:52:37;0.00;0.00;0.62;0.00;0.00;0.62;3.80;2.83;;;19.70;27.10;;;;;;2242057;62;20746;-63
2022/01/13 10:55:24;0.00;0.00;0.62;0.00;0.00;0.62;4.70;3.10;;;19.70;27.10;;;;;;2242076;61;20394;-63
2022/01/13 10:58:11;0.00;0.00;0.62;0.00;0.00;0.62;3.53;2.93;;;19.70;27.10;;;;;;2241749;62;20719;-63
2022/01/13 11:00:59;0.00;0.00;0.62;0.00;0.00;0.62;4.30;3.27;;;19.70;27.00;;;;;;2241559;62;20366;-63
2022/01/13 11:03:46;0.00;0.00;0.62;0.00;0.00;0.62;3.97;2.97;;;19.80;27.10;;;;;;2241786;62;20583;-63
2022/01/13 11:06:31;0.00;0.00;0.62;0.00;0.00;0.62;3.87;3.07;;;19.80;27.10;;;;;;2242100;62;20374;-63
2022/01/13 11:09:16;0.00;0.00;0.62;0.00;0.00;0.62;5.20;3.07;;;19.80;27.10;;;;;;2242146;62;20367;-63
2022/01/13 11:12:01;0.00;0.00;0.62;0.00;0.00;0.62;4.10;3.17;;;19.80;27.10;;;;;;2241358;62;20728;-62
2022/01/13 11:14:47;0.00;0.00;0.62;0.00;0.00;0.62;3.60;3.07;;;19.80;27.10;;;;;;2242011;61;20450;-63
2022/01/13 11:17:37;0.00;0.00;0.62;0.00;0.00;0.62;4.63;2.90;;;19.80;27.10;;;;;;2242160;62;20394;-62
2022/01/13 11:20:23;0.00;0.00;0.62;0.00;0.00;0.62;4.23;3.20;;;19.90;27.20;;;;;;2241868;62;20366;-63
2022/01/13 11:23:08;0.00;0.00;0.62;0.00;0.00;0.62;4.67;3.37;;;19.90;27.30;;;;;;2241768;62;20386;-63